Portada
METAR-TAF:

METAR-TAF

Aeroports :

Salamanca, Espanya

latitud: 40-57N, longitud: 005-30W, altitud: 793 m

Observació

L'informe es va fer fa 19 minuts, a les 21:30 UTC
Vent 15 kt del Oest/Nord-Oest, variant entre Oest i Nord-Oest
Temperatura 4°C
Humitat 87%
Pressió 1015 hPa
Visibilitat: 7000 m

METAR: LESA 222130Z AUTO 29015KT 260V320 7000 NSC 04/02 Q1015

Hora: 22:49 (21:49 UTC)

Pronòstic

L'informe es va fer fa 4 hores i 49 minuts, a les 17:00 UTC
Pronòstic vàlid del 22 a les 18 UTC al 23 a les 18 UTC
Vent 15 kt del Oest
Visibilitat 10 km o més
Cel ennuvolat a una alçada de 900 ft
Temporalment
l' 23 a les 12 UTC al 23 a les 15 UTC
Visibilitat: 3000 m
Cel ennuvolat a una alçada de 800 ft
plugim, pluja
Temporalment
l' 23 a les 10 UTC al 23 a les 18 UTC
Vent 20 kt del Oest/Nord-Oest amb ràfegues de 34 kt

TAF: LESA 221700Z 2218/2318 28015KT 9999 BKN009 TX10/2315Z TN01/2300Z TEMPO 2312/2315 3000 DZRA BKN008 TEMPO 2310/2318 29020G34KT

Observacions i pronòstics meteorològics de més de 4000 aeroports (METAR i TAF).

Les estacions disponibles són els punts grocs i vermells al mapa.

Posi el ratolí al punt desitjat per veure el nom de l'estació.

Feu clic per veure les observacions i els pronòstics meteorològics.

Per canviar el mapa: feu clic els botons verds amb una creu de color negre per apropar; al botó verd amb un guió per allunyar la imatge; o en les fletxes verdes per a mapes adjacents.


METAR-TAF: